sensor_id;sensor_type;location;lat;lon;timestamp;P1;durP1;ratioP1;P2;durP2;ratioP2
751;SDS011;360;48.764;9.164;2022-07-10T00:01:54;10.93;;;2.00;;
751;SDS011;360;48.764;9.164;2022-07-10T00:04:21;9.50;;;2.57;;
751;SDS011;360;48.764;9.164;2022-07-10T00:06:48;9.97;;;2.77;;
751;SDS011;360;48.764;9.164;2022-07-10T00:09:16;10.13;;;2.83;;
751;SDS011;360;48.764;9.164;2022-07-10T00:11:43;9.97;;;2.50;;
751;SDS011;360;48.764;9.164;2022-07-10T00:14:10;9.57;;;2.63;;
751;SDS011;360;48.764;9.164;2022-07-10T00:16:37;9.87;;;2.93;;
751;SDS011;360;48.764;9.164;2022-07-10T00:19:06;9.97;;;2.60;;
751;SDS011;360;48.764;9.164;2022-07-10T00:21:33;9.30;;;2.63;;
751;SDS011;360;48.764;9.164;2022-07-10T00:24:00;9.37;;;2.80;;
751;SDS011;360;48.764;9.164;2022-07-10T00:26:27;8.97;;;2.70;;
751;SDS011;360;48.764;9.164;2022-07-10T00:28:54;9.73;;;2.80;;
751;SDS011;360;48.764;9.164;2022-07-10T00:31:21;9.67;;;2.80;;
751;SDS011;360;48.764;9.164;2022-07-10T00:33:49;10.00;;;3.87;;
751;SDS011;360;48.764;9.164;2022-07-10T00:36:18;8.80;;;3.00;;
751;SDS011;360;48.764;9.164;2022-07-10T00:38:45;8.90;;;2.60;;
751;SDS011;360;48.764;9.164;2022-07-10T00:41:12;8.83;;;2.60;;
751;SDS011;360;48.764;9.164;2022-07-10T00:43:53;8.43;;;2.30;;
751;SDS011;360;48.764;9.164;2022-07-10T00:46:20;8.53;;;2.87;;
751;SDS011;360;48.764;9.164;2022-07-10T00:48:47;9.20;;;3.30;;
751;SDS011;360;48.764;9.164;2022-07-10T00:51:15;9.27;;;3.27;;
751;SDS011;360;48.764;9.164;2022-07-10T00:53:44;9.27;;;2.80;;
751;SDS011;360;48.764;9.164;2022-07-10T00:56:13;9.40;;;3.00;;
751;SDS011;360;48.764;9.164;2022-07-10T00:58:41;8.90;;;3.30;;
751;SDS011;360;48.764;9.164;2022-07-10T01:01:08;8.10;;;2.53;;
751;SDS011;360;48.764;9.164;2022-07-10T01:03:35;8.93;;;2.80;;
751;SDS011;360;48.764;9.164;2022-07-10T01:06:02;8.00;;;2.30;;
751;SDS011;360;48.764;9.164;2022-07-10T01:08:30;8.83;;;2.93;;
751;SDS011;360;48.764;9.164;2022-07-10T01:10:59;9.50;;;3.60;;
751;SDS011;360;48.764;9.164;2022-07-10T01:13:27;9.80;;;3.30;;
751;SDS011;360;48.764;9.164;2022-07-10T01:15:55;8.60;;;2.67;;
751;SDS011;360;48.764;9.164;2022-07-10T01:18:22;8.73;;;2.73;;
751;SDS011;360;48.764;9.164;2022-07-10T01:20:52;9.30;;;2.90;;
751;SDS011;360;48.764;9.164;2022-07-10T01:23:19;9.20;;;2.70;;
751;SDS011;360;48.764;9.164;2022-07-10T01:25:47;9.10;;;2.80;;
751;SDS011;360;48.764;9.164;2022-07-10T01:28:15;10.20;;;2.67;;
751;SDS011;360;48.764;9.164;2022-07-10T01:30:42;9.70;;;2.40;;
751;SDS011;360;48.764;9.164;2022-07-10T01:33:10;8.17;;;2.90;;
751;SDS011;360;48.764;9.164;2022-07-10T01:35:37;8.80;;;2.60;;
751;SDS011;360;48.764;9.164;2022-07-10T01:38:05;8.43;;;2.50;;
751;SDS011;360;48.764;9.164;2022-07-10T01:40:33;8.93;;;2.67;;
751;SDS011;360;48.764;9.164;2022-07-10T01:43:00;9.13;;;3.40;;
751;SDS011;360;48.764;9.164;2022-07-10T01:45:27;8.70;;;2.43;;
751;SDS011;360;48.764;9.164;2022-07-10T01:47:54;8.20;;;2.30;;
751;SDS011;360;48.764;9.164;2022-07-10T01:50:22;8.50;;;2.50;;
751;SDS011;360;48.764;9.164;2022-07-10T01:52:49;9.43;;;2.80;;
751;SDS011;360;48.764;9.164;2022-07-10T01:55:17;8.60;;;2.97;;
751;SDS011;360;48.764;9.164;2022-07-10T01:57:44;8.50;;;2.37;;
751;SDS011;360;48.764;9.164;2022-07-10T02:00:12;10.13;;;2.50;;
751;SDS011;360;48.764;9.164;2022-07-10T02:02:39;9.00;;;2.13;;
751;SDS011;360;48.764;9.164;2022-07-10T02:05:26;8.63;;;3.07;;
751;SDS011;360;48.764;9.164;2022-07-10T02:07:52;8.30;;;3.07;;
751;SDS011;360;48.764;9.164;2022-07-10T02:10:21;8.47;;;2.70;;
751;SDS011;360;48.764;9.164;2022-07-10T02:12:48;9.20;;;2.80;;
751;SDS011;360;48.764;9.164;2022-07-10T02:15:15;8.80;;;2.80;;
751;SDS011;360;48.764;9.164;2022-07-10T02:17:42;8.00;;;2.50;;
751;SDS011;360;48.764;9.164;2022-07-10T02:20:10;9.47;;;3.37;;
751;SDS011;360;48.764;9.164;2022-07-10T02:22:37;7.60;;;2.30;;
751;SDS011;360;48.764;9.164;2022-07-10T02:25:05;8.23;;;2.90;;
751;SDS011;360;48.764;9.164;2022-07-10T02:27:33;9.87;;;3.60;;
751;SDS011;360;48.764;9.164;2022-07-10T02:30:00;8.23;;;3.03;;
751;SDS011;360;48.764;9.164;2022-07-10T02:32:27;9.60;;;4.10;;
751;SDS011;360;48.764;9.164;2022-07-10T02:34:54;10.43;;;4.23;;
751;SDS011;360;48.764;9.164;2022-07-10T02:37:22;11.87;;;4.90;;
751;SDS011;360;48.764;9.164;2022-07-10T02:39:50;11.90;;;5.23;;
751;SDS011;360;48.764;9.164;2022-07-10T02:42:17;11.33;;;5.10;;
751;SDS011;360;48.764;9.164;2022-07-10T02:44:45;12.40;;;5.10;;
751;SDS011;360;48.764;9.164;2022-07-10T02:47:13;11.20;;;4.47;;
751;SDS011;360;48.764;9.164;2022-07-10T02:49:40;11.30;;;4.57;;
751;SDS011;360;48.764;9.164;2022-07-10T02:52:08;12.63;;;5.90;;
751;SDS011;360;48.764;9.164;2022-07-10T02:54:35;10.73;;;4.70;;
751;SDS011;360;48.764;9.164;2022-07-10T02:57:03;11.87;;;6.10;;
751;SDS011;360;48.764;9.164;2022-07-10T02:59:30;15.27;;;6.20;;
751;SDS011;360;48.764;9.164;2022-07-10T03:01:58;11.50;;;5.37;;
751;SDS011;360;48.764;9.164;2022-07-10T03:04:25;13.13;;;5.77;;
751;SDS011;360;48.764;9.164;2022-07-10T03:06:53;14.23;;;5.60;;
751;SDS011;360;48.764;9.164;2022-07-10T03:09:20;12.83;;;5.70;;
751;SDS011;360;48.764;9.164;2022-07-10T03:11:47;11.77;;;5.33;;
751;SDS011;360;48.764;9.164;2022-07-10T03:14:14;11.80;;;6.17;;
751;SDS011;360;48.764;9.164;2022-07-10T03:16:41;13.83;;;6.07;;
751;SDS011;360;48.764;9.164;2022-07-10T03:19:10;11.73;;;5.97;;
751;SDS011;360;48.764;9.164;2022-07-10T03:21:37;11.87;;;5.40;;
751;SDS011;360;48.764;9.164;2022-07-10T03:24:04;13.73;;;5.77;;
751;SDS011;360;48.764;9.164;2022-07-10T03:26:32;12.57;;;6.20;;
751;SDS011;360;48.764;9.164;2022-07-10T03:28:59;12.53;;;5.27;;
751;SDS011;360;48.764;9.164;2022-07-10T03:31:26;11.53;;;5.90;;
751;SDS011;360;48.764;9.164;2022-07-10T03:33:53;12.00;;;6.17;;
751;SDS011;360;48.764;9.164;2022-07-10T03:36:22;12.93;;;4.87;;
751;SDS011;360;48.764;9.164;2022-07-10T03:38:49;12.00;;;5.40;;
751;SDS011;360;48.764;9.164;2022-07-10T03:41:16;11.47;;;5.10;;
751;SDS011;360;48.764;9.164;2022-07-10T03:43:43;11.20;;;5.17;;
751;SDS011;360;48.764;9.164;2022-07-10T03:46:10;11.10;;;5.00;;
751;SDS011;360;48.764;9.164;2022-07-10T03:48:37;10.30;;;4.60;;
751;SDS011;360;48.764;9.164;2022-07-10T03:51:04;13.00;;;4.80;;
751;SDS011;360;48.764;9.164;2022-07-10T03:53:33;11.13;;;4.60;;
751;SDS011;360;48.764;9.164;2022-07-10T03:56:01;10.90;;;4.90;;
751;SDS011;360;48.764;9.164;2022-07-10T03:58:30;12.40;;;5.20;;
751;SDS011;360;48.764;9.164;2022-07-10T04:00:56;11.53;;;5.07;;
751;SDS011;360;48.764;9.164;2022-07-10T04:03:23;10.70;;;4.57;;
751;SDS011;360;48.764;9.164;2022-07-10T04:05:50;12.60;;;5.33;;
751;SDS011;360;48.764;9.164;2022-07-10T04:08:17;13.80;;;4.90;;
751;SDS011;360;48.764;9.164;2022-07-10T04:10:45;11.60;;;5.40;;
751;SDS011;360;48.764;9.164;2022-07-10T04:13:14;11.23;;;4.77;;
751;SDS011;360;48.764;9.164;2022-07-10T04:15:41;13.33;;;5.17;;
751;SDS011;360;48.764;9.164;2022-07-10T04:18:08;11.73;;;5.20;;
751;SDS011;360;48.764;9.164;2022-07-10T04:20:35;13.03;;;5.50;;
751;SDS011;360;48.764;9.164;2022-07-10T04:23:02;12.00;;;4.60;;
751;SDS011;360;48.764;9.164;2022-07-10T04:25:29;11.80;;;4.73;;
751;SDS011;360;48.764;9.164;2022-07-10T04:27:58;12.63;;;5.77;;
751;SDS011;360;48.764;9.164;2022-07-10T04:30:25;12.60;;;4.97;;
751;SDS011;360;48.764;9.164;2022-07-10T04:32:52;11.70;;;4.83;;
751;SDS011;360;48.764;9.164;2022-07-10T04:35:19;10.97;;;5.20;;
751;SDS011;360;48.764;9.164;2022-07-10T04:37:46;10.83;;;4.87;;
751;SDS011;360;48.764;9.164;2022-07-10T04:40:14;11.73;;;3.90;;
751;SDS011;360;48.764;9.164;2022-07-10T04:42:41;11.27;;;4.23;;
751;SDS011;360;48.764;9.164;2022-07-10T04:45:09;12.10;;;4.50;;
751;SDS011;360;48.764;9.164;2022-07-10T04:47:37;11.50;;;4.43;;
751;SDS011;360;48.764;9.164;2022-07-10T04:50:04;10.30;;;4.33;;
751;SDS011;360;48.764;9.164;2022-07-10T04:52:32;11.77;;;4.60;;
751;SDS011;360;48.764;9.164;2022-07-10T04:54:59;11.40;;;4.47;;
751;SDS011;360;48.764;9.164;2022-07-10T04:57:26;10.63;;;4.00;;
751;SDS011;360;48.764;9.164;2022-07-10T04:59:53;9.63;;;3.70;;
751;SDS011;360;48.764;9.164;2022-07-10T05:02:23;10.40;;;3.97;;
751;SDS011;360;48.764;9.164;2022-07-10T05:04:50;9.37;;;3.33;;
751;SDS011;360;48.764;9.164;2022-07-10T05:07:17;11.00;;;3.63;;
751;SDS011;360;48.764;9.164;2022-07-10T05:09:44;10.40;;;3.20;;
751;SDS011;360;48.764;9.164;2022-07-10T05:12:11;9.87;;;3.43;;
751;SDS011;360;48.764;9.164;2022-07-10T05:14:38;9.37;;;2.83;;
751;SDS011;360;48.764;9.164;2022-07-10T05:17:05;9.83;;;3.57;;
751;SDS011;360;48.764;9.164;2022-07-10T05:19:34;8.97;;;3.20;;
751;SDS011;360;48.764;9.164;2022-07-10T05:22:01;8.93;;;3.10;;
751;SDS011;360;48.764;9.164;2022-07-10T05:24:28;9.00;;;2.80;;
751;SDS011;360;48.764;9.164;2022-07-10T05:26:56;9.07;;;2.80;;
751;SDS011;360;48.764;9.164;2022-07-10T05:29:23;9.70;;;3.00;;
751;SDS011;360;48.764;9.164;2022-07-10T05:31:50;8.90;;;2.60;;
751;SDS011;360;48.764;9.164;2022-07-10T05:34:17;9.33;;;2.33;;
751;SDS011;360;48.764;9.164;2022-07-10T05:36:45;9.37;;;2.70;;
751;SDS011;360;48.764;9.164;2022-07-10T05:39:12;10.23;;;2.53;;
751;SDS011;360;48.764;9.164;2022-07-10T05:41:40;10.60;;;2.70;;
751;SDS011;360;48.764;9.164;2022-07-10T05:44:07;8.63;;;2.10;;
751;SDS011;360;48.764;9.164;2022-07-10T05:46:34;10.70;;;2.80;;
751;SDS011;360;48.764;9.164;2022-07-10T05:49:01;8.53;;;2.27;;
751;SDS011;360;48.764;9.164;2022-07-10T05:51:28;9.03;;;2.53;;
751;SDS011;360;48.764;9.164;2022-07-10T05:53:57;8.67;;;1.77;;
751;SDS011;360;48.764;9.164;2022-07-10T05:56:24;8.70;;;2.17;;
751;SDS011;360;48.764;9.164;2022-07-10T05:58:51;8.60;;;1.80;;
751;SDS011;360;48.764;9.164;2022-07-10T06:01:20;8.90;;;1.90;;
751;SDS011;360;48.764;9.164;2022-07-10T06:03:47;8.93;;;1.67;;
751;SDS011;360;48.764;9.164;2022-07-10T06:06:14;8.70;;;1.37;;
751;SDS011;360;48.764;9.164;2022-07-10T06:08:42;10.00;;;1.90;;
751;SDS011;360;48.764;9.164;2022-07-10T06:11:10;8.53;;;1.60;;
751;SDS011;360;48.764;9.164;2022-07-10T06:13:38;8.70;;;1.70;;
751;SDS011;360;48.764;9.164;2022-07-10T06:16:05;9.17;;;1.80;;
751;SDS011;360;48.764;9.164;2022-07-10T06:18:32;8.40;;;1.50;;
751;SDS011;360;48.764;9.164;2022-07-10T06:20:59;9.03;;;1.70;;
751;SDS011;360;48.764;9.164;2022-07-10T06:23:27;8.17;;;1.53;;
751;SDS011;360;48.764;9.164;2022-07-10T06:25:54;8.23;;;1.70;;
751;SDS011;360;48.764;9.164;2022-07-10T06:28:22;8.00;;;1.47;;
751;SDS011;360;48.764;9.164;2022-07-10T06:30:49;9.13;;;2.10;;
751;SDS011;360;48.764;9.164;2022-07-10T06:33:17;9.67;;;2.17;;
751;SDS011;360;48.764;9.164;2022-07-10T06:35:44;8.30;;;1.77;;
751;SDS011;360;48.764;9.164;2022-07-10T06:38:11;11.07;;;1.80;;
751;SDS011;360;48.764;9.164;2022-07-10T06:40:38;8.63;;;1.70;;
751;SDS011;360;48.764;9.164;2022-07-10T06:43:05;9.13;;;2.00;;
751;SDS011;360;48.764;9.164;2022-07-10T06:45:34;8.13;;;1.30;;
751;SDS011;360;48.764;9.164;2022-07-10T06:48:01;7.90;;;1.70;;
751;SDS011;360;48.764;9.164;2022-07-10T06:50:28;8.10;;;1.60;;
751;SDS011;360;48.764;9.164;2022-07-10T06:52:57;8.33;;;1.90;;
751;SDS011;360;48.764;9.164;2022-07-10T06:55:24;10.63;;;1.83;;
751;SDS011;360;48.764;9.164;2022-07-10T06:57:52;7.77;;;1.30;;
751;SDS011;360;48.764;9.164;2022-07-10T07:00:19;9.47;;;1.87;;
751;SDS011;360;48.764;9.164;2022-07-10T07:02:48;9.77;;;2.20;;
751;SDS011;360;48.764;9.164;2022-07-10T07:05:15;8.10;;;1.43;;
751;SDS011;360;48.764;9.164;2022-07-10T07:07:42;8.70;;;1.77;;
751;SDS011;360;48.764;9.164;2022-07-10T07:10:09;9.53;;;1.60;;
751;SDS011;360;48.764;9.164;2022-07-10T07:12:37;11.07;;;1.50;;
751;SDS011;360;48.764;9.164;2022-07-10T07:15:05;7.80;;;1.27;;
751;SDS011;360;48.764;9.164;2022-07-10T07:17:32;7.93;;;1.43;;
751;SDS011;360;48.764;9.164;2022-07-10T07:20:02;8.20;;;1.70;;
751;SDS011;360;48.764;9.164;2022-07-10T07:22:47;10.60;;;1.53;;
751;SDS011;360;48.764;9.164;2022-07-10T07:25:32;7.70;;;1.53;;
751;SDS011;360;48.764;9.164;2022-07-10T07:28:00;7.60;;;1.50;;
751;SDS011;360;48.764;9.164;2022-07-10T07:30:27;7.67;;;1.50;;
751;SDS011;360;48.764;9.164;2022-07-10T07:32:54;8.73;;;1.57;;
751;SDS011;360;48.764;9.164;2022-07-10T07:35:23;9.70;;;2.10;;
751;SDS011;360;48.764;9.164;2022-07-10T07:37:50;7.20;;;1.20;;
751;SDS011;360;48.764;9.164;2022-07-10T07:40:18;7.27;;;1.43;;
751;SDS011;360;48.764;9.164;2022-07-10T07:42:47;7.40;;;1.60;;
751;SDS011;360;48.764;9.164;2022-07-10T07:45:14;7.40;;;1.53;;
751;SDS011;360;48.764;9.164;2022-07-10T07:47:42;6.70;;;1.10;;
751;SDS011;360;48.764;9.164;2022-07-10T07:50:10;7.10;;;1.70;;
751;SDS011;360;48.764;9.164;2022-07-10T07:52:38;7.87;;;1.37;;
751;SDS011;360;48.764;9.164;2022-07-10T07:55:06;6.80;;;1.50;;
751;SDS011;360;48.764;9.164;2022-07-10T07:57:33;7.17;;;1.37;;
751;SDS011;360;48.764;9.164;2022-07-10T08:00:00;7.50;;;1.80;;
751;SDS011;360;48.764;9.164;2022-07-10T08:02:27;6.60;;;1.27;;
751;SDS011;360;48.764;9.164;2022-07-10T08:04:54;8.40;;;1.60;;
751;SDS011;360;48.764;9.164;2022-07-10T08:07:21;9.33;;;1.60;;
751;SDS011;360;48.764;9.164;2022-07-10T08:09:50;7.13;;;1.10;;
751;SDS011;360;48.764;9.164;2022-07-10T08:12:17;6.40;;;1.20;;
751;SDS011;360;48.764;9.164;2022-07-10T08:14:44;8.10;;;1.07;;
751;SDS011;360;48.764;9.164;2022-07-10T08:17:11;6.80;;;1.20;;
751;SDS011;360;48.764;9.164;2022-07-10T08:19:38;6.37;;;1.20;;
751;SDS011;360;48.764;9.164;2022-07-10T08:22:06;8.27;;;1.60;;
751;SDS011;360;48.764;9.164;2022-07-10T08:24:33;6.30;;;1.10;;
751;SDS011;360;48.764;9.164;2022-07-10T08:27:01;9.40;;;1.60;;
751;SDS011;360;48.764;9.164;2022-07-10T08:29:28;8.80;;;1.20;;
751;SDS011;360;48.764;9.164;2022-07-10T08:31:55;6.80;;;1.40;;
751;SDS011;360;48.764;9.164;2022-07-10T08:34:23;7.10;;;1.53;;
751;SDS011;360;48.764;9.164;2022-07-10T08:36:50;6.30;;;1.50;;
751;SDS011;360;48.764;9.164;2022-07-10T08:39:17;6.60;;;1.40;;
751;SDS011;360;48.764;9.164;2022-07-10T08:41:46;8.10;;;1.10;;
751;SDS011;360;48.764;9.164;2022-07-10T08:44:16;6.50;;;1.13;;
751;SDS011;360;48.764;9.164;2022-07-10T08:46:44;10.10;;;1.40;;
751;SDS011;360;48.764;9.164;2022-07-10T08:49:11;6.93;;;1.37;;
751;SDS011;360;48.764;9.164;2022-07-10T08:51:40;6.70;;;1.70;;
751;SDS011;360;48.764;9.164;2022-07-10T08:54:08;7.20;;;1.50;;
751;SDS011;360;48.764;9.164;2022-07-10T08:56:35;9.23;;;1.33;;
751;SDS011;360;48.764;9.164;2022-07-10T08:59:02;7.10;;;1.50;;
751;SDS011;360;48.764;9.164;2022-07-10T09:01:31;8.67;;;1.30;;
751;SDS011;360;48.764;9.164;2022-07-10T09:03:59;7.10;;;1.60;;
751;SDS011;360;48.764;9.164;2022-07-10T09:06:27;6.10;;;0.97;;
751;SDS011;360;48.764;9.164;2022-07-10T09:09:02;6.90;;;1.43;;
751;SDS011;360;48.764;9.164;2022-07-10T09:11:29;7.97;;;1.23;;
751;SDS011;360;48.764;9.164;2022-07-10T09:13:57;6.40;;;1.10;;
751;SDS011;360;48.764;9.164;2022-07-10T09:16:25;6.90;;;1.47;;
751;SDS011;360;48.764;9.164;2022-07-10T09:18:54;7.53;;;1.20;;
751;SDS011;360;48.764;9.164;2022-07-10T09:21:21;8.07;;;1.40;;
751;SDS011;360;48.764;9.164;2022-07-10T09:23:49;6.70;;;1.30;;
751;SDS011;360;48.764;9.164;2022-07-10T09:26:16;7.67;;;1.47;;
751;SDS011;360;48.764;9.164;2022-07-10T09:28:43;9.70;;;1.37;;
751;SDS011;360;48.764;9.164;2022-07-10T09:31:10;7.10;;;1.17;;
751;SDS011;360;48.764;9.164;2022-07-10T09:33:39;6.40;;;1.10;;
751;SDS011;360;48.764;9.164;2022-07-10T09:36:08;7.80;;;1.20;;
751;SDS011;360;48.764;9.164;2022-07-10T09:41:20;9.20;;;1.27;;
751;SDS011;360;48.764;9.164;2022-07-10T09:43:47;7.13;;;1.47;;
751;SDS011;360;48.764;9.164;2022-07-10T09:46:15;7.77;;;1.33;;
751;SDS011;360;48.764;9.164;2022-07-10T09:48:42;7.87;;;1.20;;
751;SDS011;360;48.764;9.164;2022-07-10T09:51:11;9.43;;;1.30;;
751;SDS011;360;48.764;9.164;2022-07-10T09:53:38;8.10;;;1.50;;
751;SDS011;360;48.764;9.164;2022-07-10T09:56:07;7.20;;;1.10;;
751;SDS011;360;48.764;9.164;2022-07-10T09:58:34;7.50;;;1.57;;
751;SDS011;360;48.764;9.164;2022-07-10T10:01:02;8.20;;;1.13;;
751;SDS011;360;48.764;9.164;2022-07-10T10:03:33;7.27;;;1.00;;
751;SDS011;360;48.764;9.164;2022-07-10T10:06:02;6.63;;;1.37;;
751;SDS011;360;48.764;9.164;2022-07-10T10:08:32;7.80;;;1.13;;
751;SDS011;360;48.764;9.164;2022-07-10T10:11:03;6.77;;;1.40;;
751;SDS011;360;48.764;9.164;2022-07-10T10:13:31;8.73;;;1.30;;
751;SDS011;360;48.764;9.164;2022-07-10T10:16:01;7.33;;;1.37;;
751;SDS011;360;48.764;9.164;2022-07-10T10:18:29;7.67;;;1.40;;
751;SDS011;360;48.764;9.164;2022-07-10T10:20:56;7.10;;;1.10;;
751;SDS011;360;48.764;9.164;2022-07-10T10:23:23;6.83;;;1.10;;
751;SDS011;360;48.764;9.164;2022-07-10T10:25:52;6.53;;;1.17;;
751;SDS011;360;48.764;9.164;2022-07-10T10:28:20;6.53;;;1.20;;
751;SDS011;360;48.764;9.164;2022-07-10T10:30:49;6.93;;;1.00;;
751;SDS011;360;48.764;9.164;2022-07-10T10:36:05;6.30;;;1.20;;
751;SDS011;360;48.764;9.164;2022-07-10T10:41:23;7.87;;;1.30;;
751;SDS011;360;48.764;9.164;2022-07-10T10:46:33;7.73;;;1.67;;
751;SDS011;360;48.764;9.164;2022-07-10T10:49:06;6.83;;;1.20;;
751;SDS011;360;48.764;9.164;2022-07-10T10:54:16;9.30;;;1.37;;
751;SDS011;360;48.764;9.164;2022-07-10T10:56:44;6.60;;;1.00;;
751;SDS011;360;48.764;9.164;2022-07-10T10:59:13;6.97;;;1.30;;
751;SDS011;360;48.764;9.164;2022-07-10T11:04:43;7.23;;;1.13;;
751;SDS011;360;48.764;9.164;2022-07-10T11:07:10;7.27;;;1.23;;
751;SDS011;360;48.764;9.164;2022-07-10T11:09:37;9.23;;;1.27;;
751;SDS011;360;48.764;9.164;2022-07-10T11:12:06;6.70;;;1.33;;
751;SDS011;360;48.764;9.164;2022-07-10T11:14:34;7.33;;;1.20;;
751;SDS011;360;48.764;9.164;2022-07-10T11:17:01;6.63;;;1.20;;
751;SDS011;360;48.764;9.164;2022-07-10T11:19:29;7.77;;;1.10;;
751;SDS011;360;48.764;9.164;2022-07-10T11:22:03;6.57;;;0.97;;
751;SDS011;360;48.764;9.164;2022-07-10T11:27:26;7.03;;;1.10;;
751;SDS011;360;48.764;9.164;2022-07-10T11:29:57;7.57;;;1.00;;
751;SDS011;360;48.764;9.164;2022-07-10T11:32:24;7.50;;;1.40;;
751;SDS011;360;48.764;9.164;2022-07-10T11:34:52;6.90;;;1.10;;
751;SDS011;360;48.764;9.164;2022-07-10T11:37:19;6.50;;;1.10;;
751;SDS011;360;48.764;9.164;2022-07-10T11:39:47;6.30;;;0.80;;
751;SDS011;360;48.764;9.164;2022-07-10T11:42:14;7.57;;;1.00;;
751;SDS011;360;48.764;9.164;2022-07-10T11:44:42;10.97;;;1.30;;
751;SDS011;360;48.764;9.164;2022-07-10T11:47:10;7.50;;;1.10;;
751;SDS011;360;48.764;9.164;2022-07-10T11:49:43;7.33;;;0.97;;
751;SDS011;360;48.764;9.164;2022-07-10T11:52:11;7.47;;;1.03;;
751;SDS011;360;48.764;9.164;2022-07-10T11:54:38;6.43;;;0.80;;
751;SDS011;360;48.764;9.164;2022-07-10T11:57:07;8.80;;;1.30;;
751;SDS011;360;48.764;9.164;2022-07-10T11:59:35;6.50;;;1.00;;
751;SDS011;360;48.764;9.164;2022-07-10T12:02:05;7.67;;;1.00;;
751;SDS011;360;48.764;9.164;2022-07-10T12:04:32;6.77;;;1.03;;
751;SDS011;360;48.764;9.164;2022-07-10T12:06:59;6.70;;;1.00;;
751;SDS011;360;48.764;9.164;2022-07-10T12:09:26;11.53;;;1.10;;
751;SDS011;360;48.764;9.164;2022-07-10T12:11:59;7.80;;;1.20;;
751;SDS011;360;48.764;9.164;2022-07-10T12:14:27;6.50;;;1.00;;
751;SDS011;360;48.764;9.164;2022-07-10T12:16:55;7.00;;;1.10;;
751;SDS011;360;48.764;9.164;2022-07-10T12:19:24;9.60;;;1.30;;
751;SDS011;360;48.764;9.164;2022-07-10T12:21:52;6.50;;;0.87;;
751;SDS011;360;48.764;9.164;2022-07-10T12:24:20;6.93;;;0.93;;
751;SDS011;360;48.764;9.164;2022-07-10T12:26:49;6.90;;;1.10;;
751;SDS011;360;48.764;9.164;2022-07-10T12:29:20;6.50;;;0.80;;
751;SDS011;360;48.764;9.164;2022-07-10T12:31:48;6.33;;;0.90;;
751;SDS011;360;48.764;9.164;2022-07-10T12:34:16;7.57;;;1.20;;
751;SDS011;360;48.764;9.164;2022-07-10T12:36:45;7.17;;;1.00;;
751;SDS011;360;48.764;9.164;2022-07-10T12:39:13;7.73;;;1.20;;
751;SDS011;360;48.764;9.164;2022-07-10T12:41:54;8.50;;;0.80;;
751;SDS011;360;48.764;9.164;2022-07-10T12:44:31;7.00;;;1.10;;
751;SDS011;360;48.764;9.164;2022-07-10T12:47:02;8.40;;;1.17;;
751;SDS011;360;48.764;9.164;2022-07-10T12:49:46;9.10;;;0.90;;
751;SDS011;360;48.764;9.164;2022-07-10T12:52:20;6.67;;;0.80;;
751;SDS011;360;48.764;9.164;2022-07-10T12:54:47;6.87;;;1.00;;
751;SDS011;360;48.764;9.164;2022-07-10T12:57:14;7.80;;;1.00;;
751;SDS011;360;48.764;9.164;2022-07-10T12:59:41;6.40;;;0.70;;
751;SDS011;360;48.764;9.164;2022-07-10T13:02:15;7.77;;;1.20;;
751;SDS011;360;48.764;9.164;2022-07-10T13:04:51;6.70;;;0.80;;
751;SDS011;360;48.764;9.164;2022-07-10T13:07:20;8.03;;;1.83;;
751;SDS011;360;48.764;9.164;2022-07-10T13:09:47;7.20;;;0.70;;
751;SDS011;360;48.764;9.164;2022-07-10T13:12:15;6.80;;;0.90;;
751;SDS011;360;48.764;9.164;2022-07-10T13:14:42;6.60;;;0.80;;
751;SDS011;360;48.764;9.164;2022-07-10T13:17:10;6.70;;;0.80;;
751;SDS011;360;48.764;9.164;2022-07-10T13:19:37;6.50;;;0.70;;
751;SDS011;360;48.764;9.164;2022-07-10T13:22:04;6.90;;;0.90;;
751;SDS011;360;48.764;9.164;2022-07-10T13:24:33;7.10;;;1.20;;
751;SDS011;360;48.764;9.164;2022-07-10T13:27:00;6.60;;;0.70;;
751;SDS011;360;48.764;9.164;2022-07-10T13:29:27;6.93;;;0.80;;
751;SDS011;360;48.764;9.164;2022-07-10T13:31:55;6.37;;;0.67;;
751;SDS011;360;48.764;9.164;2022-07-10T13:34:22;7.10;;;0.70;;
751;SDS011;360;48.764;9.164;2022-07-10T13:36:49;6.63;;;0.90;;
751;SDS011;360;48.764;9.164;2022-07-10T13:39:19;7.10;;;0.77;;
751;SDS011;360;48.764;9.164;2022-07-10T13:41:47;7.33;;;0.80;;
751;SDS011;360;48.764;9.164;2022-07-10T13:44:16;6.80;;;0.93;;
751;SDS011;360;48.764;9.164;2022-07-10T13:46:43;6.60;;;0.70;;
751;SDS011;360;48.764;9.164;2022-07-10T13:49:10;7.70;;;1.10;;
751;SDS011;360;48.764;9.164;2022-07-10T13:51:37;6.80;;;0.87;;
751;SDS011;360;48.764;9.164;2022-07-10T13:54:04;8.17;;;1.17;;
751;SDS011;360;48.764;9.164;2022-07-10T13:56:32;6.53;;;0.83;;
751;SDS011;360;48.764;9.164;2022-07-10T13:59:00;7.80;;;1.03;;
751;SDS011;360;48.764;9.164;2022-07-10T14:01:28;7.50;;;0.80;;
751;SDS011;360;48.764;9.164;2022-07-10T14:03:55;6.70;;;0.80;;
751;SDS011;360;48.764;9.164;2022-07-10T14:06:22;6.70;;;0.80;;
751;SDS011;360;48.764;9.164;2022-07-10T14:08:49;6.70;;;0.90;;
751;SDS011;360;48.764;9.164;2022-07-10T14:11:16;6.63;;;0.87;;
751;SDS011;360;48.764;9.164;2022-07-10T14:13:44;6.50;;;0.83;;
751;SDS011;360;48.764;9.164;2022-07-10T14:16:12;6.47;;;0.73;;
751;SDS011;360;48.764;9.164;2022-07-10T14:18:39;6.70;;;0.80;;
751;SDS011;360;48.764;9.164;2022-07-10T14:21:07;6.90;;;0.80;;
751;SDS011;360;48.764;9.164;2022-07-10T14:23:35;6.93;;;0.77;;
751;SDS011;360;48.764;9.164;2022-07-10T14:26:03;7.00;;;1.10;;
751;SDS011;360;48.764;9.164;2022-07-10T14:28:31;7.00;;;1.30;;
751;SDS011;360;48.764;9.164;2022-07-10T14:30:59;6.90;;;0.90;;
751;SDS011;360;48.764;9.164;2022-07-10T14:33:29;7.23;;;1.20;;
751;SDS011;360;48.764;9.164;2022-07-10T14:35:58;6.30;;;0.70;;
751;SDS011;360;48.764;9.164;2022-07-10T14:38:25;6.93;;;1.20;;
751;SDS011;360;48.764;9.164;2022-07-10T14:40:53;6.27;;;0.70;;
751;SDS011;360;48.764;9.164;2022-07-10T14:43:20;6.90;;;0.90;;
751;SDS011;360;48.764;9.164;2022-07-10T14:45:49;7.60;;;0.93;;
751;SDS011;360;48.764;9.164;2022-07-10T14:48:16;6.60;;;0.80;;
751;SDS011;360;48.764;9.164;2022-07-10T14:50:45;7.35;;;1.00;;
751;SDS011;360;48.764;9.164;2022-07-10T14:53:11;6.97;;;1.10;;
751;SDS011;360;48.764;9.164;2022-07-10T14:55:39;7.93;;;0.90;;
751;SDS011;360;48.764;9.164;2022-07-10T14:58:06;7.20;;;1.30;;
751;SDS011;360;48.764;9.164;2022-07-10T15:00:33;6.80;;;0.83;;
751;SDS011;360;48.764;9.164;2022-07-10T15:03:01;7.88;;;0.93;;
751;SDS011;360;48.764;9.164;2022-07-10T15:05:28;6.78;;;0.80;;
751;SDS011;360;48.764;9.164;2022-07-10T15:07:57;7.38;;;0.60;;
751;SDS011;360;48.764;9.164;2022-07-10T15:10:24;7.30;;;0.90;;
751;SDS011;360;48.764;9.164;2022-07-10T15:12:51;7.13;;;0.80;;
751;SDS011;360;48.764;9.164;2022-07-10T15:15:18;7.72;;;0.80;;
751;SDS011;360;48.764;9.164;2022-07-10T15:17:46;6.97;;;0.80;;
751;SDS011;360;48.764;9.164;2022-07-10T15:20:13;7.07;;;0.90;;
751;SDS011;360;48.764;9.164;2022-07-10T15:22:41;6.70;;;0.80;;
751;SDS011;360;48.764;9.164;2022-07-10T15:25:10;6.88;;;0.80;;
751;SDS011;360;48.764;9.164;2022-07-10T15:27:37;7.15;;;0.98;;
751;SDS011;360;48.764;9.164;2022-07-10T15:30:07;7.35;;;0.98;;
751;SDS011;360;48.764;9.164;2022-07-10T15:32:36;6.68;;;0.60;;
751;SDS011;360;48.764;9.164;2022-07-10T15:35:03;8.15;;;0.90;;
751;SDS011;360;48.764;9.164;2022-07-10T15:37:31;7.32;;;1.10;;
751;SDS011;360;48.764;9.164;2022-07-10T15:39:58;6.95;;;1.00;;
751;SDS011;360;48.764;9.164;2022-07-10T15:42:27;7.53;;;1.13;;
751;SDS011;360;48.764;9.164;2022-07-10T15:44:53;9.20;;;1.27;;
751;SDS011;360;48.764;9.164;2022-07-10T15:47:20;7.93;;;0.90;;
751;SDS011;360;48.764;9.164;2022-07-10T15:49:47;7.18;;;0.85;;
751;SDS011;360;48.764;9.164;2022-07-10T15:52:14;7.40;;;0.77;;
751;SDS011;360;48.764;9.164;2022-07-10T15:54:41;35.35;;;3.03;;
751;SDS011;360;48.764;9.164;2022-07-10T15:57:09;7.05;;;0.70;;
751;SDS011;360;48.764;9.164;2022-07-10T15:59:38;7.05;;;0.80;;
751;SDS011;360;48.764;9.164;2022-07-10T16:02:05;8.10;;;0.82;;
751;SDS011;360;48.764;9.164;2022-07-10T16:04:36;7.28;;;0.88;;
751;SDS011;360;48.764;9.164;2022-07-10T16:07:03;7.80;;;0.85;;